Snake Valley, Nevada Weather observations

Data are for 10 minute period ending at time listed.
 Day   Time   Solar   Ave.   Ave.  Ave.  Vector  Max.   Baro.   Total    
  of    of     Rad.   Air    Rel.  Wind   Wind   Wind  Press.  Precip.   
Year   Day            Temp.  Hum.  Speed  Dir.   Gust                    
2014   (PST)  Kw/m2    F      %     mph   deg.    mph    mb.     in.     
-------------------------------------------------------------------------
 108    0:00   0.00   61.7    21   11.4   188    18.2   837.3    0.00 
 108    0:10   0.00   61.9    20   14.2   188    20.7   837.3    0.00 
 108    0:20   0.00   61.6    20   12.6   191    17.0   837.4    0.00 
 108    0:30   0.00   61.4    20   10.9   198    16.7   837.4    0.00 
 108    0:40   0.00   61.4    20   10.3   205    14.4   837.3    0.00 
 108    0:50   0.00   60.2    22    7.8   222    11.6   837.1    0.00 
 108    1:00   0.00   58.3    26    3.4   155     8.0   837.1    0.00 
 108    1:10   0.00   56.7    25    7.7   130    14.0   837.0    0.00 
 108    1:20   0.00   56.7    23    7.3   131    15.3   836.9    0.00 
 108    1:30   0.00   55.8    26    5.8   142    13.7   836.8    0.00 
 108    1:40   0.00   56.2    24    8.0   144    15.9   836.7    0.00 
 108    1:50   0.00   55.6    25    5.9   131    10.5   836.7    0.00 
 108    2:00   0.00   56.2    23    5.5    93     7.8   836.7    0.00 
 108    2:10   0.00   54.8    24    3.4    71     6.2   836.7    0.00 
 108    2:20   0.00   55.5    23    4.9    41     8.8   836.7    0.00 
 108    2:30   0.00   56.0    24    3.5    35     6.7   836.8    0.00 
 108    2:40   0.00   55.8    24    4.3    82     7.5   836.7    0.00 
 108    2:50   0.00   55.9    22    5.2    67     7.8   836.7    0.00 
 108    3:00   0.00   55.8    23    4.9    60     8.2   836.8    0.00 
 108    3:10   0.00   56.0    23    6.2    72     9.8   836.8    0.00 
 108    3:20   0.00   55.7    24    7.2   104    14.5   836.8    0.00 
 108    3:30   0.00   55.4    25   11.0   115    16.4   836.7    0.00 
 108    3:40   0.00   54.8    28    8.5   124    13.4   836.6    0.00 
 108    3:50   0.00   54.2    29    6.0   138    10.6   836.6    0.00 
 108    4:00   0.00   52.3    32    2.9   190     6.1   836.7    0.00 
 108    4:10   0.00   52.2    31    5.5   161    13.1   836.6    0.00 
 108    4:20   0.00   54.2    27   10.9   127    19.2   836.6    0.00 
 108    4:30   0.00   55.4    25   13.8   120    20.9   836.6    0.00 
 108    4:40   0.00   55.1    26   12.8   126    17.2   836.6    0.00 
 108    4:50   0.00   54.3    26    9.6   154    15.6   836.7    0.00 
 108    5:00   0.00   53.3    28    7.2   184    13.9   836.9    0.00 
 108    5:10   0.01   52.4    32    5.0   188     9.4   837.0    0.00 
 108    5:20   0.01   52.7    29   10.6   146    18.4   837.1    0.00 
 108    5:30   0.03   53.2    28   10.4   150    15.7   837.2    0.00 
 108    5:40   0.04   55.3    26    9.3   147    12.7   837.4    0.00 
 108    5:50   0.07   57.8    22    5.1   142    11.0   837.4    0.00 
 108    6:00   0.11   56.9    24    7.5   140    12.6   837.4    0.00 
 108    6:10   0.17   56.4    28    8.6   168    20.4   837.4    0.00 
 108    6:20   0.18   57.7    26   10.0   134    19.9   837.4    0.00 
 108    6:30   0.19   59.9    22    5.0   178    12.4   837.6    0.00 
 108    6:40   0.16   60.7    25    6.7   155    11.8   837.5    0.00 
 108    6:50   0.16   59.9    26    6.8   223    16.9   837.6    0.00 
 108    7:00   0.15   57.6    30    2.1   270     3.9   837.6    0.00 
 108    7:10   0.18   56.8    35    2.6   260     4.7   837.7    0.00 
 108    7:20   0.20   58.5    29    4.5   328     7.6   837.7    0.00 
 108    7:30   0.19   59.2    28    3.7   301     7.5   837.9    0.00 
 108    7:40   0.24   59.0    32    2.7   200     9.3   838.0    0.00 
 108    7:50   0.28   59.6    26   13.8   152    20.5   837.9    0.00 
 108    8:00   0.28   60.0    25   14.6   163    19.0   837.8    0.00 
 108    8:10   0.34   60.7    25   15.9   162    22.0   837.8    0.00 
 108    8:20   0.34   61.2    25   16.5   160    22.1   837.9    0.00 
 108    8:30   0.32   61.4    25   15.7   155    20.4   838.1    0.00 
 108    8:40   0.30   61.7    26   13.1   152    20.2   838.2    0.00 
 108    8:50   0.28   62.1    27   10.2   147    17.5   838.1    0.00 
 108    9:00   0.31   61.6    27   13.9   141    18.2   838.1    0.00 
 108    9:10   0.33   62.0    27   12.0   143    17.1   838.2    0.00 
 108    9:20   0.31   62.8    26   12.8   145    17.2   838.2    0.00 
 108    9:30   0.33   63.3    28    7.4   166    15.0   838.2    0.00 
 108    9:40   0.35   64.5    28    6.2   171    10.0   838.2    0.00 
 108    9:50   0.46   65.4    27    7.8   165    12.7   838.2    0.00 
 108   10:00   0.54   66.3    26    8.4   184    13.4   838.2    0.00 
 108   10:10   0.78   67.5    22    7.5   162    13.9   838.2    0.00 
 108   10:20   0.55   68.3    21    7.2   202    13.1   838.1    0.00 
 108   10:30   0.43   66.8    24    7.9   149    14.8   838.0    0.00 
 108   10:40   0.47   67.1    22    7.1   155    11.6   838.0    0.00 
 108   10:50   0.67   69.0    22    3.9   283     8.3   837.9    0.00 
 108   11:00   0.77   69.0    20    5.5   294     9.9   837.7    0.00 
 108   11:10   0.80   69.4    21    5.7   303    10.2   837.6    0.00 
 108   11:20   0.86   69.5    23    6.8   292    11.4   837.5    0.00 
 108   11:30   0.76   69.9    20    7.1   315    12.5   837.5    0.00 
 108   11:40   0.75   69.6    21    7.8   293    14.2   837.5    0.00 
 108   11:50   0.64   70.3    19    4.5   229    10.3   837.5    0.00 
 108   12:00   0.44   68.8    24    9.2   244    12.7   837.5    0.00 
 108   12:10   0.38   67.9    25    6.4   235    10.9   837.5    0.00 
 108   12:20   0.32   67.4    26    7.0   265    10.0   837.5    0.00 
 108   12:30   0.32   67.5    26    5.4   295    12.2   837.4    0.00 
 108   12:40   0.32   66.7    26    8.8   292    14.5   837.4    0.00 
 108   12:50   0.36   66.5    32    6.7   284     9.9   837.4    0.00 
 108   13:00   0.42   67.1    34    3.6   258     6.1   837.4    0.00 
 108   13:10   0.44   69.7    21    4.2   148     7.4   837.3    0.00 
 108   13:20   0.43   69.5    20    7.0    64    12.2   837.3    0.00 
 108   13:30   0.44   69.0    22   13.1    43    17.2   837.2    0.00 
 108   13:40   0.43   68.9    23   13.9    38    18.3   837.1    0.00 
 108   13:50   0.45   69.2    22   13.4    38    18.3   836.9    0.00 
 108   14:00   0.45   69.0    22   14.1    45    17.9   836.8    0.00 
 108   14:10   0.44   69.6    20   12.7    53    22.9   836.7    0.00 
 108   14:20   0.42   69.2    21   10.6    54    17.0   836.6    0.00 
 108   14:30   0.46   69.6    20    9.4    34    15.6   836.5    0.00 
 108   14:40   0.50   70.1    19    4.9    63     8.8   836.4    0.00 
 108   14:50   100.00  99999.0   99999  99999.0   99999   99999.0   99999.0   99999.00 
 108   15:00   0.36   69.5    21    6.0   199    13.2   836.2    0.00 
 108   15:10   0.32   68.7    22   10.7   182    17.1   836.1    0.00 
 108   15:20   0.29   68.2    23    9.3   194    13.7   836.2    0.00 
 108   15:30   0.26   67.8    23    9.9   186    15.2   836.2    0.00 
 108   15:40   0.23   67.4    23    9.9   188    14.5   836.2    0.00 
 108   15:50   0.20   66.8    24    9.3   190    13.7   836.2    0.00 
 108   16:00   0.19   66.5    24    6.6   185    12.1   836.3    0.00 
 108   16:10   0.18   66.3    26    5.8   222    10.8   836.3    0.00 
 108   16:20   0.17   66.9    25    6.6   340    17.2   836.4    0.00 
 108   16:30   0.17   68.0    22   10.7    34    16.4   836.5    0.00 
 108   16:40   0.15   66.9    25   10.9    34    15.3   836.6    0.00 
 108   16:50   0.13   66.0    27   11.4    38    15.3   836.7    0.00 
 108   17:00   0.11   65.0    29    6.9    63    15.6   836.9    0.00 
 108   17:10   0.09   64.8    29   11.1    29    17.2   836.9    0.00 
 108   17:20   0.07   63.9    30   13.8    39    19.1   837.2    0.00 
 108   17:30   0.06   63.3    31   14.9    41    27.0   837.2    0.00 
 108   17:40   0.05   62.9    32   11.8    40    18.7   837.3    0.00 
 108   17:50   0.03   62.4    32   12.2    42    16.9   837.4    0.00 
 108   18:00   0.02   61.7    33   13.8    26    19.6   837.5    0.00 
 108   18:10   0.02   61.2    34   11.4    27    18.0   837.6    0.00 
 108   18:20   0.01   60.8    34   12.0    26    16.6   837.6    0.00 
 108   18:30   0.00   60.2    36   10.1    27    14.6   837.8    0.00 
 108   18:40   0.00   59.5    37    7.8    23    11.8   837.9    0.00 
 108   18:50   0.00   58.9    37    7.4    36    12.3   838.0    0.00 
 108   19:00   0.00   57.5    41    3.8   329     8.0   838.2    0.00 
 108   19:10   0.00   55.5    46    5.2   244     7.2   838.4    0.00 
 108   19:20   0.00   59.1    38    2.9   232     7.7   838.6    0.00 
 108   19:30   0.00   58.8    41    3.4   262     9.2   838.7    0.00 
 108   19:40   0.00   53.0    55    5.6   247     8.7   838.9    0.00 
 108   19:50   0.00   52.4    54    4.8   233     6.8   839.0    0.00 
 108   20:00   0.00   49.1    62    3.8   263     5.0   839.1    0.00 
 108   20:10   0.00   49.0    62    4.6   278     5.7   839.1    0.00 
 108   20:20   0.00   47.5    65    3.6   292     4.7   839.2    0.00 
 108   20:30   0.00   48.9    58    4.0   312     5.2   839.4    0.00 
 108   20:40   0.00   51.1    51    3.5   303     4.2   839.4    0.00 
 108   20:50   0.00   51.5    51    3.8   275     5.0   839.4    0.00 
 108   21:00   0.00   48.1    59    5.2   274     7.1   839.3    0.00 
 108   21:10   0.00   45.7    66    5.7   283     6.5   839.3    0.00 
 108   21:20   0.00   44.4    72    4.0   279     5.7   839.3    0.00 
 108   21:30   0.00   44.2    70    4.1   269     5.2   839.4    0.00 
 108   21:40   0.00   43.5    71    2.5   252     5.9   839.5    0.00 
 108   21:50   0.00   46.3    60    3.0   181     5.0   839.5    0.00 
 108   22:00   0.00   48.4    53    1.7   202     2.7   839.5    0.00 
 108   22:10   0.00   48.1    54    2.3   256     5.6   839.5    0.00 
 108   22:20   0.00   43.2    69    3.7   300     5.0   839.6    0.00 
 108   22:30   0.00   45.3    64    3.8   295     5.8   839.7    0.00 
 108   22:40   0.00   45.6    62    2.7   310     3.7   839.6    0.00 
 108   22:50   0.00   46.6    58    1.0   300     2.6   839.5    0.00 

Return to Snake Valley graphs page.


Western Regional Climate Center,wrcc@dri.edu